• pl
  • eng

Awiacja
Komunikaty METAR z lotnisk wojskowych. 04:01 20.08.2018

METAR EPCE 200230Z 17003KT 9999 SCT202 15/13 Q1014 RMK 150 089 3/3=

METAR EPDA 200230Z 19005KT 140V220 9999 BKN185 17/13
Q1012 RMK 174 076 7/7 =

METAR EPDE 200230Z 10004KT 8000 MIFG SCT070 17/16 Q1017 RMK 168 092
4/4=

METAR EPIR 200230Z NIL=

METAR EPKS 200230Z 08003KT CAVOK 15/11 Q1015 RMK 153 077 0/0=

METAR EPLK 200230Z NIL=

METAR EPLY 200230Z NIL=

METAR EPMB 200230Z AUTO 18003KT 160V220 9999 NCD 14/13 Q1014 RMK 136
095 ///=

METAR EPMI 200230Z NIL=

METAR EPMM 200230Z 12002KT CAVOK 15/14 Q1017 RMK 149 095 0/0=
925
SAPL97 SOPR 200230 RRC

METAR EPNA 200230Z NIL=

METAR EPOK 200230Z 22007KT CAVOK 18/14
Q1013 RMK 183 076 2/2 =

METAR EPPR 200230Z 00000KT 9999 MIFG SCT200 14/13 Q1014 RMK 142 092
3/3=

METAR EPPW 200230Z 13002KT CAVOK 18/10 Q1015 RMK 184 057 0/0=

METAR EPSN 200230Z NIL=

METAR EPTM 200230Z NIL=
 METAR EPCE
Lokalizacja:EPCE Cewice
Czas:02:30 UTC
Średni kierunek wiatru:170 °
Średnia prędkość wiatru:3 węzłów
Widzialność:10 km i więcej
Pierwsza warstwa chmur:3/8 do 4/8, wysokość podstawy 20200 FT
Temperatura powietrza:15 °C
Temperatura punktu rosy:13 °C
Ciśnienie QNH:1014 hPa
Dokładna temperatura powietrza:15,0 °C
Dokładna wilgotność względna:89 %
Zachmurzenie przez wszystkie piętra chmur:3/8
Zachmurzenie przez chmury niskie:3/8
Awiacja.imgw.pl jest pogodowym serwisem informacyjnym
Instytutu Meteorologii i Gospodarki Wodnej Państwowego Instytutu Badawczego.
Copyright IMGW PIB 2009-2011© Wszelkie prawa zastrzeżone.